Buoy 43555

sailwx.info

Track history (hours):
 
Tides and Currents Weather Stations Pressure Air Temp Water Temp Dewpoint Dewpoint Depression Visibility Wind Speed Wind Dir Waves Ship Positions

Yuehuilaiyu43555

Last reported at 2018-Feb-23 00:00 UTC. Time now 2018-Feb-23 04:58 UTC.
Position N 30°31' W 025°29'.

Length 21 m.

Type: Fishing. MMSI: 412466967.

Water temperature 19.4 ° C

Date/timePositionNaut miles runAvg speedWind from/ knotsBaromVisibWave heightAir tempDewpointWater temp
2018-Feb-23 00:00N 30°31' W 025°29'0 0.0 19.4
2018-Feb-22 23:30N 30°31' W 025°29'1 2.1 19.5
2018-Feb-22 23:15N 30°31' W 025°30'0 0.0 19.5
2018-Feb-22 22:30N 30°31' W 025°30'1 2.1 19.5
2018-Feb-22 22:15N 30°31' W 025°31'0 0.0 19.5
2018-Feb-22 22:00N 30°31' W 025°31'0 0.0 19.5
2018-Feb-22 21:45N 30°31' W 025°31'1 2.4 19.5
2018-Feb-22 21:30N 30°31' W 025°31'0 0.0 19.5
2018-Feb-22 21:15N 30°31' W 025°31'1 3.2 19.5
2018-Feb-22 21:00N 30°31' W 025°31'0 0.0 19.5
2018-Feb-22 20:15N 30°31' W 025°31'0 0.0 19.5
2018-Feb-22 20:00N 30°31' W 025°31'0 0.0 19.5
2018-Feb-22 19:45N 30°31' W 025°31'1 2.1 19.5
2018-Feb-22 19:30N 30°31' W 025°32'0 0.0 19.5
2018-Feb-22 19:15N 30°31' W 025°32'0 0.0 19.6
2018-Feb-22 18:15N 30°31' W 025°32'1 0.7 19.6
2018-Feb-22 17:30N 30°31' W 025°32'1 2.1 19.6
2018-Feb-22 17:15N 30°31' W 025°33'1 0.8 19.6
2018-Feb-22 15:45N 30°31' W 025°34'1 4.8 19.7
2018-Feb-22 15:30N 30°31' W 025°33'1 0.2 19.6
2018-Feb-22 12:15N 30°31' W 025°34'1 2.4 19.4
2018-Feb-22 12:00N 30°31' W 025°34'0 0.0 19.4
2018-Feb-22 11:15N 30°31' W 025°34'1 2.4 19.4
2018-Feb-22 11:00N 30°31' W 025°34'0 0.0 19.4
2018-Feb-22 10:30N 30°31' W 025°34'0 0.0 19.4
2018-Feb-22 10:15N 30°31' W 025°34'1 0.3 19.4
2018-Feb-22 08:45N 30°31' W 025°34'0 0.0 19.4
2018-Feb-22 08:00N 30°31' W 025°34'0 0.0 19.5
2018-Feb-22 07:45N 30°31' W 025°34'0 0.0 010 / 2 gusting 21023.1 7.6 4.419.5
2018-Feb-22 07:30N 30°31' W 025°34'2 1.1 19.5
2018-Feb-22 06:00N 30°32' W 025°35'0 0.0 19.5
2018-Feb-22 05:45N 30°32' W 025°35'0 0.0 19.5
2018-Feb-22 04:30N 30°32' W 025°35'0 0.0 19.5
2018-Feb-22 04:15N 30°32' W 025°35'0 0.0 19.5
2018-Feb-22 00:30N 30°32' W 025°35'0 0.0 19.5
2018-Feb-22 00:15N 30°32' W 025°35'0 0.0 19.5
2018-Feb-21 23:45N 30°32' W 025°35'1 2.1 19.5
2018-Feb-21 23:30N 30°32' W 025°36'1 0.7 19.5
2018-Feb-21 22:45N 30°32' W 025°35'0 0.0 19.5
2018-Feb-21 22:30N 30°32' W 025°35'1 1.6 19.5
2018-Feb-21 22:00N 30°33' W 025°36'0 0.0 19.5
2018-Feb-21 21:00N 30°33' W 025°36'0 0.0 19.5
2018-Feb-21 20:30N 30°33' W 025°36'1 2.1 19.5
2018-Feb-21 20:15N 30°33' W 025°37'0 0.0 19.5
2018-Feb-21 19:45N 30°33' W 025°37'1 0.5 19.6
2018-Feb-21 18:45N 30°33' W 025°37'1 1.0 19.6
2018-Feb-21 18:15N 30°33' W 025°37'0 0.0 19.6
2018-Feb-21 17:45N 30°33' W 025°37'2 6.2 19.6
2018-Feb-21 17:30N 30°33' W 025°38'0 0.0 19.6
2018-Feb-21 16:00N 30°33' W 025°38'0 0.0 19.7
2018-Feb-21 15:45N 30°33' W 025°38'1 0.4 19.6
2018-Feb-21 13:00N 30°33' W 025°40'0 0.0 19.6
2018-Feb-21 12:30N 30°33' W 025°40'0 0.0 19.6
2018-Feb-21 12:15N 30°33' W 025°40'1 1.1 19.6
2018-Feb-21 11:30N 30°32' W 025°39'0 0.0 19.6
2018-Feb-21 11:15N 30°32' W 025°39'1 1.2 19.6
2018-Feb-21 10:45N 30°33' W 025°39'0 0.0 19.6
2018-Feb-21 10:30N 30°33' W 025°39'0 0.0 19.6
2018-Feb-21 10:15N 30°33' W 025°39'0 0.0 19.6
2018-Feb-21 09:45N 30°33' W 025°39'0 0.0 19.6
2018-Feb-21 09:00N 30°33' W 025°39'0 0.0 19.6
2018-Feb-21 08:45N 30°33' W 025°39'0 0.0 19.6
2018-Feb-21 08:15N 30°33' W 025°39'0 0.0 19.6
2018-Feb-21 08:00N 30°33' W 025°39'0 0.0 19.5
2018-Feb-21 06:30N 30°33' W 025°39'1 2.4 19.5
2018-Feb-21 06:15N 30°34' W 025°39'0 0.0 19.6
2018-Feb-21 06:00N 30°34' W 025°39'1 0.7 19.5
2018-Feb-21 04:30N 30°34' W 025°40'0 0.0 19.5
2018-Feb-21 00:00N 30°34' W 025°40'0 0.0 19.6
2018-Feb-20 23:15N 30°34' W 025°40'0 0.0 19.6
2018-Feb-20 23:00N 30°34' W 025°40'0 0.0 19.6
2018-Feb-20 22:30N 30°34' W 025°40'0 0.0 19.6
2018-Feb-20 22:15N 30°34' W 025°40'0 0.0 19.6
2018-Feb-20 21:30N 30°34' W 025°40'1 2.1 19.6
2018-Feb-20 21:15N 30°34' W 025°41'0 0.0 19.6
2018-Feb-20 21:00N 30°34' W 025°41'1 4.1 19.6
2018-Feb-20 20:45N 30°34' W 025°40'0 0.0 19.6
2018-Feb-20 20:15N 30°34' W 025°40'0 0.0 19.6
2018-Feb-20 19:15N 30°34' W 025°40'1 1.0 19.6
2018-Feb-20 18:45N 30°34' W 025°40'0 0.0 19.6
2018-Feb-20 18:30N 30°34' W 025°40'0 0.0 19.6
2018-Feb-20 17:45N 30°34' W 025°40'0 0.0 19.6
2018-Feb-20 16:15N 30°34' W 025°40'1 3.2 19.6
2018-Feb-20 16:00N 30°34' W 025°41'0 0.0 19.6
2018-Feb-20 12:45N 30°34' W 025°41'1 0.8 19.6
2018-Feb-20 11:45N 30°34' W 025°40'0 0.0 19.5
2018-Feb-20 11:15N 30°34' W 025°40'1 3.2 19.5
2018-Feb-20 11:00N 30°34' W 025°40'1 2.1 19.5
2018-Feb-20 10:45N 30°34' W 025°40'1 1.2 19.5
2018-Feb-20 10:15N 30°35' W 025°40'1 2.4 19.5
2018-Feb-20 10:00N 30°34' W 025°40'0 0.0 19.5
2018-Feb-20 09:15N 30°34' W 025°40'1 2.1 19.5
2018-Feb-20 09:00N 30°34' W 025°41'0 0.0 19.5
2018-Feb-20 08:45N 30°34' W 025°41'1 2.1 19.5
2018-Feb-20 08:30N 30°34' W 025°40'1 0.4 19.5
2018-Feb-20 07:15N 30°34' W 025°40'1 2.1 19.5
2018-Feb-20 07:00N 30°34' W 025°40'1 2.1 19.5
2018-Feb-20 06:45N 30°34' W 025°40'0 0.0 19.5
2018-Feb-20 06:30N 30°34' W 025°40'1 2.1 19.5
2018-Feb-20 06:15N 30°34' W 025°40'1 0.5 19.5
2018-Feb-20 04:45N 30°35' W 025°41'0 0.0 19.5
2018-Feb-20 04:30N 30°35' W 025°41'0 0.0 19.5
2018-Feb-20 00:15N 30°35' W 025°41'0 0.0 19.5
2018-Feb-19 23:30N 30°35' W 025°41'0 0.0 19.5
2018-Feb-19 23:15N 30°35' W 025°41'0 0.0 19.5
2018-Feb-19 22:45N 30°35' W 025°41'0 0.0 19.5
2018-Feb-19 22:30N 30°35' W 025°41'0 0.0 19.5
2018-Feb-19 22:15N 30°35' W 025°41'0 0.0 19.5
2018-Feb-19 21:45N 30°35' W 025°41'0 0.0 19.5
2018-Feb-19 21:30N 30°35' W 025°41'0 0.0 19.5
2018-Feb-19 21:15N 30°35' W 025°41'1 4.1 19.5
2018-Feb-19 21:00N 30°35' W 025°40'1 2.1 19.6
2018-Feb-19 20:45N 30°35' W 025°40'0 0.0 19.6
2018-Feb-19 20:30N 30°35' W 025°40'0 0.0 19.5
2018-Feb-19 19:45N 30°35' W 025°40'1 0.8 19.6
2018-Feb-19 19:00N 30°35' W 025°40'0 0.0 19.6
2018-Feb-19 18:00N 30°35' W 025°40'0 0.0 19.6
2018-Feb-19 17:45N 30°35' W 025°40'0 0.0 19.6
2018-Feb-19 16:15N 30°35' W 025°40'1 0.2 19.6
2018-Feb-19 13:00N 30°36' W 025°40'0 0.0 19.6
2018-Feb-19 12:15N 30°36' W 025°40'1 3.2 19.6
2018-Feb-19 12:00N 30°35' W 025°40'1 1.2 19.6
2018-Feb-19 11:30N 30°36' W 025°40'1 1.6 19.6
2018-Feb-19 11:00N 30°35' W 025°40'0 0.0 19.6
2018-Feb-19 10:30N 30°35' W 025°40'0 0.0 19.6
2018-Feb-19 10:15N 30°35' W 025°40'1 0.8 19.6
2018-Feb-19 09:30N 30°36' W 025°40'0 0.0 19.5
2018-Feb-19 09:15N 30°36' W 025°40'1 0.3 19.5
2018-Feb-19 07:45N 30°36' W 025°39'1 2.1 19.5
2018-Feb-19 07:30N 30°36' W 025°40'1 2.1 19.6
2018-Feb-19 07:15N 30°36' W 025°39'0 0.0 19.5
2018-Feb-19 06:45N 30°36' W 025°39'0 0.0 19.6
2018-Feb-19 06:30N 30°36' W 025°39'0 0.0 19.6
2018-Feb-19 05:45N 30°36' W 025°39'0 0.0 19.6
2018-Feb-19 05:00N 30°36' W 025°39'2 6.3 19.6
2018-Feb-19 04:45N 30°37' W 025°40'0 0.0 19.6
2018-Feb-18 23:45N 30°37' W 025°40'0 0.0 19.6
2018-Feb-18 23:15N 30°37' W 025°40'0 0.0 19.6
2018-Feb-18 23:00N 30°37' W 025°40'0 0.0 19.6
2018-Feb-18 22:30N 30°37' W 025°40'0 0.0 19.6
2018-Feb-18 22:15N 30°37' W 025°40'0 0.0 19.6
2018-Feb-18 22:00N 30°37' W 025°40'0 0.0 19.7
2018-Feb-18 21:30N 30°37' W 025°40'1 2.4 19.7
2018-Feb-18 21:15N 30°37' W 025°40'0 0.0 19.7
2018-Feb-18 21:00N 30°37' W 025°40'1 3.2 19.7
2018-Feb-18 20:45N 30°37' W 025°40'1 1.2 19.7
2018-Feb-18 20:15N 30°37' W 025°40'1 0.8 19.7
2018-Feb-18 19:30N 30°37' W 025°40'0 0.0 19.7
2018-Feb-18 19:15N 30°37' W 025°40'0 0.0 19.7
2018-Feb-18 18:45N 30°37' W 025°40'1 3.2 19.7
2018-Feb-18 18:30N 30°37' W 025°39'1 2.4 19.8
2018-Feb-18 18:15N 30°37' W 025°39'0 0.0 19.8
2018-Feb-18 18:00N 30°37' W 025°39'1 0.5 19.8
2018-Feb-18 16:30N 30°38' W 025°40'1 3.2 19.8
2018-Feb-18 16:15N 30°37' W 025°39'1 0.2 19.8
2018-Feb-18 12:30N 30°38' W 025°39'1 0.8 19.7
2018-Feb-18 11:45N 30°38' W 025°39'1 1.2 19.7
2018-Feb-18 11:15N 30°38' W 025°39'0 0.0 19.7
2018-Feb-18 11:00N 30°38' W 025°39'1 3.2 19.7
2018-Feb-18 10:45N 30°38' W 025°40'0 0.0 19.7
2018-Feb-18 10:15N 30°38' W 025°40'1 2.1 19.6
2018-Feb-18 10:00N 30°38' W 025°39'1 2.4 19.6
2018-Feb-18 09:45N 30°38' W 025°39'0 0.0 19.6
2018-Feb-18 09:30N 30°38' W 025°39'1 0.6 19.6
2018-Feb-18 08:15N 30°38' W 025°38'0 0.0 19.7
2018-Feb-18 08:00N 30°38' W 025°38'0 0.0 19.7
2018-Feb-18 07:45N 30°38' W 025°38'1 0.6 19.7
2018-Feb-18 06:45N 30°39' W 025°38'1 2.4 19.7
2018-Feb-18 06:30N 30°38' W 025°38'0 0.0 19.7
2018-Feb-18 06:15N 30°38' W 025°38'1 0.6 19.7
2018-Feb-18 05:15N 30°39' W 025°38'2 6.3 19.7
2018-Feb-18 05:00N 30°40' W 025°40'0 0.0 19.7
2018-Feb-18 00:15N 30°40' W 025°40'0 0.0 19.8
2018-Feb-18 00:00N 30°40' W 025°40'1 1.0 19.8
2018-Feb-17 23:30N 30°40' W 025°40'1 2.1 19.8
2018-Feb-17 23:15N 30°40' W 025°40'1 0.7 19.8
2018-Feb-17 22:30N 30°40' W 025°40'0 0.0 19.8
2018-Feb-17 22:15N 30°40' W 025°40'0 0.0 19.8
2018-Feb-17 21:45N 30°40' W 025°40'0 0.0 1026.5 3.0 0.819.8
2018-Feb-17 21:30N 30°40' W 025°40'1 2.1 19.8
2018-Feb-17 21:15N 30°40' W 025°41'0 0.0 19.8
2018-Feb-17 21:00N 30°40' W 025°41'1 2.1 19.8
2018-Feb-17 20:45N 30°40' W 025°40'0 0.0 19.8
2018-Feb-17 20:00N 30°40' W 025°40'0 0.0 19.9
2018-Feb-17 19:45N 30°40' W 025°40'0 0.0 19.9
2018-Feb-17 19:30N 30°40' W 025°40'0 0.0 20.0
2018-Feb-17 19:15N 30°40' W 025°40'0 0.0 20.0
2018-Feb-17 19:00N 30°40' W 025°40'1 1.0 20.0
2018-Feb-17 18:30N 30°40' W 025°40'0 0.0 20.0
2018-Feb-17 18:15N 30°40' W 025°40'1 0.9 20.1
2018-Feb-17 16:45N 30°41' W 025°39'0 0.0 20.2
2018-Feb-17 16:30N 30°41' W 025°39'0 0.0 20.3
2018-Feb-17 12:45N 30°41' W 025°39'0 0.0 20.0
2018-Feb-17 12:15N 30°41' W 025°39'0 0.0 19.8
2018-Feb-17 12:00N 30°41' W 025°39'0 0.0 19.8
2018-Feb-17 11:30N 30°41' W 025°39'1 3.2 19.7
2018-Feb-17 11:15N 30°42' W 025°40'0 0.0 19.7
2018-Feb-17 11:00N 30°42' W 025°40'0 0.0 19.7
2018-Feb-17 10:30N 30°42' W 025°40'0 0.0 19.7
2018-Feb-17 10:15N 30°42' W 025°40'0 0.0 19.7
2018-Feb-17 10:00N 30°42' W 025°40'1 3.2 19.7
2018-Feb-17 09:45N 30°41' W 025°39'0 0.0 19.7
2018-Feb-17 08:45N 30°41' W 025°39'1 2.4 19.7
2018-Feb-17 08:30N 30°42' W 025°39'0 0.0 19.7
2018-Feb-17 08:15N 30°42' W 025°39'0 0.0 19.7
2018-Feb-17 08:00N 30°42' W 025°39'1 0.8 19.7
2018-Feb-17 07:00N 30°43' W 025°40'0 0.0 19.7
2018-Feb-17 06:45N 30°43' W 025°40'1 0.5 19.7
2018-Feb-17 05:15N 30°43' W 025°40'1 0.1 19.8
2018-Feb-16 23:45N 30°43' W 025°41'1 0.5 20.1
2018-Feb-16 22:45N 30°43' W 025°40'0 0.0 20.2
2018-Feb-16 22:15N 30°43' W 025°40'1 2.1 20.3
2018-Feb-16 22:00N 30°43' W 025°41'0 0.0 20.3
2018-Feb-16 21:30N 30°43' W 025°41'0 0.0 20.4
2018-Feb-16 21:15N 30°43' W 025°41'0 0.0 20.4
2018-Feb-16 21:00N 30°43' W 025°41'0 0.0 20.4
2018-Feb-16 20:15N 30°43' W 025°41'0 0.0 20.6
2018-Feb-16 19:45N 30°43' W 025°41'0 0.0 20.8
2018-Feb-16 19:30N 30°43' W 025°41'1 1.1 20.9
2018-Feb-16 18:45N 30°44' W 025°40'1 5.2 21.1
2018-Feb-16 18:30N 30°43' W 025°41'2 1.1 21.1
2018-Feb-16 17:00N 30°44' W 025°40'0 0.0 21.5
2018-Feb-16 16:45N 30°44' W 025°40'0 0.0 21.5
2018-Feb-16 15:15N 30°44' W 025°40'0 0.0 21.2
2018-Feb-16 13:15N 30°44' W 025°40'0 0.0 20.2
2018-Feb-16 12:30N 30°44' W 025°40'0 0.0 20.0
2018-Feb-16 12:15N 30°44' W 025°40'0 0.0 19.9
2018-Feb-16 11:30N 30°44' W 025°40'1 0.8 19.7
2018-Feb-16 10:45N 30°44' W 025°40'1 0.7 19.7
2018-Feb-16 10:00N 30°44' W 025°40'0 0.0 19.6
2018-Feb-16 09:45N 30°44' W 025°40'0 0.0 19.6
2018-Feb-16 09:00N 30°44' W 025°40'0 0.0 19.6
2018-Feb-16 08:15N 30°44' W 025°40'0 0.0 19.6
2018-Feb-16 07:30N 30°44' W 025°40'0 0.0 19.6
2018-Feb-16 07:15N 30°44' W 025°40'1 3.2 19.6
2018-Feb-16 07:00N 30°45' W 025°40'0 0.0 19.6
2018-Feb-16 05:45N 30°45' W 025°40'1 2.1 19.6
2018-Feb-16 05:30N 30°45' W 025°40'0 0.0 19.6
2018-Feb-16 05:15N 30°45' W 025°40'1 0.1 19.7
2018-Feb-16 00:00N 30°45' W 025°41'0 0.0 19.8
2018-Feb-15 23:15N 30°45' W 025°41'0 0.0 19.8
2018-Feb-15 23:00N 30°45' W 025°41'0 0.0 19.8
2018-Feb-15 22:30N 30°45' W 025°41'1 2.1 19.9
2018-Feb-15 22:15N 30°45' W 025°41'0 0.0 19.9
2018-Feb-15 21:30N 30°45' W 025°41'0 0.0 19.9
2018-Feb-15 20:45N 30°45' W 025°41'0 0.0 19.9
2018-Feb-15 20:30N 30°45' W 025°41'0 0.0 20.0
2018-Feb-15 20:15N 30°45' W 025°41'0 0.0 20.0
2018-Feb-15 20:00N 30°45' W 025°41'0 0.0 20.0
2018-Feb-15 19:45N 30°45' W 025°41'1 1.0 20.0
2018-Feb-15 19:15N 30°45' W 025°41'1 2.1 20.1
2018-Feb-15 19:00N 30°45' W 025°41'0 0.0 20.1
2018-Feb-15 18:45N 30°45' W 025°41'0 0.0 20.1
2018-Feb-15 18:30N 30°45' W 025°41'1 0.3 20.2
2018-Feb-15 17:00N 30°45' W 025°41'0 0.0 20.1
2018-Feb-15 15:15N 30°45' W 025°41'1 0.2 20.1
2018-Feb-15 12:45N 30°46' W 025°41'0 0.0 19.8
2018-Feb-15 12:00N 30°46' W 025°41'0 0.0 19.7
2018-Feb-15 11:45N 30°46' W 025°41'0 0.0 19.7
2018-Feb-15 11:15N 30°46' W 025°41'0 0.0 19.6
2018-Feb-15 11:00N 30°46' W 025°41'1 1.1 19.6
2018-Feb-15 10:15N 30°46' W 025°41'0 0.0 19.6
2018-Feb-15 10:00N 30°46' W 025°41'0 0.0 19.6
2018-Feb-15 09:30N 30°46' W 025°41'0 0.0 19.6
2018-Feb-15 09:15N 30°46' W 025°41'1 0.8 19.6
2018-Feb-15 08:30N 30°46' W 025°41'1 1.0 19.6
2018-Feb-15 08:00N 30°46' W 025°42'1 3.2 19.6
2018-Feb-15 07:45N 30°46' W 025°41'0 0.0 19.6
2018-Feb-15 07:30N 30°46' W 025°41'1 3.2 19.6
2018-Feb-15 07:15N 30°46' W 025°41'0 0.0 19.6
2018-Feb-15 06:15N 30°46' W 025°41'1 2.1 19.6
2018-Feb-15 06:00N 30°46' W 025°41'1 3.2 19.6
2018-Feb-15 05:45N 30°46' W 025°42'0 0.0 19.6
2018-Feb-15 05:30N 30°46' W 025°42'0 0.0 19.6
2018-Feb-15 04:00N 30°46' W 025°42'1 0.1 19.6
2018-Feb-14 23:30N 30°46' W 025°42'1 1.1 19.7
2018-Feb-14 22:45N 30°46' W 025°41'0 0.0 19.7
2018-Feb-14 22:00N 30°46' W 025°41'1 2.1 19.7
2018-Feb-14 21:45N 30°46' W 025°42'0 0.0 19.7
2018-Feb-14 21:30N 30°46' W 025°42'0 0.0 19.7
2018-Feb-14 21:00N 30°46' W 025°42'1 2.1 19.8
2018-Feb-14 20:45N 30°46' W 025°43'1 2.1 19.8
2018-Feb-14 20:30N 30°46' W 025°42'1 1.0 19.8
2018-Feb-14 20:00N 30°46' W 025°43'1 1.0 19.8
2018-Feb-14 19:30N 30°46' W 025°42'0 0.0 19.8
2018-Feb-14 19:15N 30°46' W 025°42'0 0.0 19.8
2018-Feb-14 19:00N 30°46' W 025°42'0 0.0 19.9
2018-Feb-14 17:15N 30°46' W 025°42'0 0.0 20.1
2018-Feb-14 17:00N 30°46' W 025°42'0 0.0 20.1
2018-Feb-14 15:30N 30°46' W 025°42'1 0.2 19.8
2018-Feb-14 13:00N 30°47' W 025°42'1 0.7 19.7
2018-Feb-14 12:15N 30°47' W 025°43'0 0.0 19.7
2018-Feb-14 12:00N 30°47' W 025°43'0 0.0 19.7
2018-Feb-14 11:30N 30°47' W 025°43'0 0.0 19.6
2018-Feb-14 11:15N 30°47' W 025°43'0 0.0 19.6
2018-Feb-14 10:30N 30°47' W 025°43'0 0.0 19.6
2018-Feb-14 10:15N 30°47' W 025°43'0 0.0 19.6
2018-Feb-14 09:45N 30°47' W 025°43'1 0.5 19.6
2018-Feb-14 08:45N 30°47' W 025°43'0 0.0 19.6
2018-Feb-14 08:30N 30°47' W 025°43'0 0.0 19.6
2018-Feb-14 08:15N 30°47' W 025°43'0 0.0 19.6
2018-Feb-14 07:30N 30°47' W 025°43'0 0.0 19.6
2018-Feb-14 06:45N 30°47' W 025°43'0 0.0 19.6
2018-Feb-14 06:30N 30°47' W 025°43'1 1.2 19.6
2018-Feb-14 06:00N 30°47' W 025°43'1 3.2 19.6
2018-Feb-14 05:45N 30°48' W 025°43'1 0.7 19.6
2018-Feb-14 04:15N 30°48' W 025°44'0 0.0 19.6
2018-Feb-14 04:00N 30°48' W 025°44'0 0.0 19.6
2018-Feb-14 00:00N 30°48' W 025°44'1 3.2 19.6
2018-Feb-13 23:45N 30°47' W 025°43'0 0.0 19.6
2018-Feb-13 23:15N 30°47' W 025°43'0 0.0 19.6
2018-Feb-13 23:00N 30°47' W 025°43'0 0.0 19.7
2018-Feb-13 22:15N 30°47' W 025°43'0 0.0 19.7
2018-Feb-13 22:00N 30°47' W 025°43'1 3.2 19.7
2018-Feb-13 21:45N 30°48' W 025°44'1 2.4 19.6
2018-Feb-13 21:30N 30°47' W 025°44'0 0.0 19.7
2018-Feb-13 21:15N 30°47' W 025°44'0 0.0 19.7
2018-Feb-13 21:00N 30°47' W 025°44'0 0.0 19.7
2018-Feb-13 20:15N 30°47' W 025°44'1 4.1 19.7
2018-Feb-13 20:00N 30°47' W 025°43'1 1.0 19.7
2018-Feb-13 19:30N 30°47' W 025°43'1 0.4 19.7
2018-Feb-13 18:15N 30°47' W 025°43'0 0.0 19.7
2018-Feb-13 17:30N 30°47' W 025°43'0 0.0 19.8
2018-Feb-13 17:15N 30°47' W 025°43'0 0.0 19.8
2018-Feb-13 15:45N 30°47' W 025°43'2 0.5 19.8
2018-Feb-13 12:30N 30°49' W 025°41'1 1.2 19.6
2018-Feb-13 12:00N 30°48' W 025°41'1 2.4 19.6
2018-Feb-13 11:45N 30°49' W 025°41'0 0.0 19.6
2018-Feb-13 11:00N 30°49' W 025°41'0 0.0 19.6
2018-Feb-13 10:45N 30°49' W 025°41'0 0.0 19.6
2018-Feb-13 10:30N 30°49' W 025°41'1 3.2 19.6
2018-Feb-13 10:15N 30°49' W 025°42'1 0.5 19.6
2018-Feb-13 09:00N 30°49' W 025°42'1 3.2 19.6
2018-Feb-13 08:45N 30°49' W 025°43'0 0.0 19.6
2018-Feb-13 08:30N 30°49' W 025°43'0 0.0 19.6
2018-Feb-13 07:15N 30°49' W 025°43'0 0.0 19.6
2018-Feb-13 06:15N 30°49' W 025°43'1 4.8 19.6
2018-Feb-13 06:00N 30°50' W 025°43'0 0.0 19.6
2018-Feb-13 05:45N 30°50' W 025°43'0 0.0 19.6
2018-Feb-13 05:30N 30°50' W 025°43'0 0.0 19.6
2018-Feb-13 04:30N 30°50' W 025°43'1 2.1 19.6
2018-Feb-13 04:15N 30°50' W 025°42'0 0.0 19.6
2018-Feb-13 00:15N 30°50' W 025°42'0 0.0 19.6
2018-Feb-13 00:00N 30°50' W 025°42'   19.6
Track history (hours):
 
Tides and Currents Weather Stations Pressure Air Temp Water Temp Dewpoint Dewpoint Depression Visibility Wind Speed Wind Dir Waves Ship Positions

Yuehuilaiyu43555

Last reported at 2018-Feb-23 00:00 UTC. Time now 2018-Feb-23 04:58 UTC.
Position N 30°31' W 025°29'.

Length 21 m.

Type: Fishing. MMSI: 412466967.

Water temperature 19.4 ° C

Date/timePositionNaut miles runAvg speedWind from/ knotsBaromVisibWave heightAir tempDewpointWater temp
2018-Feb-23 00:00N 30°31' W 025°29'0 0.0 19.4
2018-Feb-22 23:30N 30°31' W 025°29'1 2.1 19.5
2018-Feb-22 23:15N 30°31' W 025°30'0 0.0 19.5
2018-Feb-22 22:30N 30°31' W 025°30'1 2.1 19.5
2018-Feb-22 22:15N 30°31' W 025°31'0 0.0 19.5
2018-Feb-22 22:00N 30°31' W 025°31'0 0.0 19.5
2018-Feb-22 21:45N 30°31' W 025°31'1 2.4 19.5
2018-Feb-22 21:30N 30°31' W 025°31'0 0.0 19.5
2018-Feb-22 21:15N 30°31' W 025°31'1 3.2 19.5
2018-Feb-22 21:00N 30°31' W 025°31'0 0.0 19.5
2018-Feb-22 20:15N 30°31' W 025°31'0 0.0 19.5
2018-Feb-22 20:00N 30°31' W 025°31'0 0.0 19.5
2018-Feb-22 19:45N 30°31' W 025°31'1 2.1 19.5
2018-Feb-22 19:30N 30°31' W 025°32'0 0.0 19.5
2018-Feb-22 19:15N 30°31' W 025°32'0 0.0 19.6
2018-Feb-22 18:15N 30°31' W 025°32'1 0.7 19.6
2018-Feb-22 17:30N 30°31' W 025°32'1 2.1 19.6
2018-Feb-22 17:15N 30°31' W 025°33'1 0.8 19.6
2018-Feb-22 15:45N 30°31' W 025°34'1 4.8 19.7
2018-Feb-22 15:30N 30°31' W 025°33'1 0.2 19.6
2018-Feb-22 12:15N 30°31' W 025°34'1 2.4 19.4
2018-Feb-22 12:00N 30°31' W 025°34'0 0.0 19.4
2018-Feb-22 11:15N 30°31' W 025°34'1 2.4 19.4
2018-Feb-22 11:00N 30°31' W 025°34'0 0.0 19.4
2018-Feb-22 10:30N 30°31' W 025°34'0 0.0 19.4
2018-Feb-22 10:15N 30°31' W 025°34'1 0.3 19.4
2018-Feb-22 08:45N 30°31' W 025°34'0 0.0 19.4
2018-Feb-22 08:00N 30°31' W 025°34'0 0.0 19.5
2018-Feb-22 07:45N 30°31' W 025°34'0 0.0 010 / 2 gusting 21023.1 7.6 4.419.5
2018-Feb-22 07:30N 30°31' W 025°34'2 1.1 19.5
2018-Feb-22 06:00N 30°32' W 025°35'0 0.0 19.5
2018-Feb-22 05:45N 30°32' W 025°35'0 0.0 19.5
2018-Feb-22 04:30N 30°32' W 025°35'0 0.0 19.5
2018-Feb-22 04:15N 30°32' W 025°35'0 0.0 19.5
2018-Feb-22 00:30N 30°32' W 025°35'0 0.0 19.5
2018-Feb-22 00:15N 30°32' W 025°35'0 0.0 19.5
2018-Feb-21 23:45N 30°32' W 025°35'1 2.1 19.5
2018-Feb-21 23:30N 30°32' W 025°36'1 0.7 19.5
2018-Feb-21 22:45N 30°32' W 025°35'0 0.0 19.5
2018-Feb-21 22:30N 30°32' W 025°35'1 1.6 19.5
2018-Feb-21 22:00N 30°33' W 025°36'0 0.0 19.5
2018-Feb-21 21:00N 30°33' W 025°36'0 0.0 19.5
2018-Feb-21 20:30N 30°33' W 025°36'1 2.1 19.5
2018-Feb-21 20:15N 30°33' W 025°37'0 0.0 19.5
2018-Feb-21 19:45N 30°33' W 025°37'1 0.5 19.6
2018-Feb-21 18:45N 30°33' W 025°37'1 1.0 19.6
2018-Feb-21 18:15N 30°33' W 025°37'0 0.0 19.6
2018-Feb-21 17:45N 30°33' W 025°37'2 6.2 19.6
2018-Feb-21 17:30N 30°33' W 025°38'0 0.0 19.6
2018-Feb-21 16:00N 30°33' W 025°38'0 0.0 19.7
2018-Feb-21 15:45N 30°33' W 025°38'1 0.4 19.6
2018-Feb-21 13:00N 30°33' W 025°40'0 0.0 19.6
2018-Feb-21 12:30N 30°33' W 025°40'0 0.0 19.6
2018-Feb-21 12:15N 30°33' W 025°40'1 1.1 19.6
2018-Feb-21 11:30N 30°32' W 025°39'0 0.0 19.6
2018-Feb-21 11:15N 30°32' W 025°39'1 1.2 19.6
2018-Feb-21 10:45N 30°33' W 025°39'0 0.0 19.6
2018-Feb-21 10:30N 30°33' W 025°39'0 0.0 19.6
2018-Feb-21 10:15N 30°33' W 025°39'0 0.0 19.6
2018-Feb-21 09:45N 30°33' W 025°39'0 0.0 19.6
2018-Feb-21 09:00N 30°33' W 025°39'0 0.0 19.6
2018-Feb-21 08:45N 30°33' W 025°39'0 0.0 19.6
2018-Feb-21 08:15N 30°33' W 025°39'0 0.0 19.6
2018-Feb-21 08:00N 30°33' W 025°39'0 0.0 19.5
2018-Feb-21 06:30N 30°33' W 025°39'1 2.4 19.5
2018-Feb-21 06:15N 30°34' W 025°39'0 0.0 19.6
2018-Feb-21 06:00N 30°34' W 025°39'1 0.7 19.5
2018-Feb-21 04:30N 30°34' W 025°40'0 0.0 19.5
2018-Feb-21 00:00N 30°34' W 025°40'0 0.0 19.6
2018-Feb-20 23:15N 30°34' W 025°40'0 0.0 19.6
2018-Feb-20 23:00N 30°34' W 025°40'0 0.0 19.6
2018-Feb-20 22:30N 30°34' W 025°40'0 0.0 19.6
2018-Feb-20 22:15N 30°34' W 025°40'0 0.0 19.6
2018-Feb-20 21:30N 30°34' W 025°40'1 2.1 19.6
2018-Feb-20 21:15N 30°34' W 025°41'0 0.0 19.6
2018-Feb-20 21:00N 30°34' W 025°41'1 4.1 19.6
2018-Feb-20 20:45N 30°34' W 025°40'0 0.0 19.6
2018-Feb-20 20:15N 30°34' W 025°40'0 0.0 19.6
2018-Feb-20 19:15N 30°34' W 025°40'1 1.0 19.6
2018-Feb-20 18:45N 30°34' W 025°40'0 0.0 19.6
2018-Feb-20 18:30N 30°34' W 025°40'0 0.0 19.6
2018-Feb-20 17:45N 30°34' W 025°40'0 0.0 19.6
2018-Feb-20 16:15N 30°34' W 025°40'1 3.2 19.6
2018-Feb-20 16:00N 30°34' W 025°41'0 0.0 19.6
2018-Feb-20 12:45N 30°34' W 025°41'1 0.8 19.6
2018-Feb-20 11:45N 30°34' W 025°40'0 0.0 19.5
2018-Feb-20 11:15N 30°34' W 025°40'1 3.2 19.5
2018-Feb-20 11:00N 30°34' W 025°40'1 2.1 19.5
2018-Feb-20 10:45N 30°34' W 025°40'1 1.2 19.5
2018-Feb-20 10:15N 30°35' W 025°40'1 2.4 19.5
2018-Feb-20 10:00N 30°34' W 025°40'0 0.0 19.5
2018-Feb-20 09:15N 30°34' W 025°40'1 2.1 19.5
2018-Feb-20 09:00N 30°34' W 025°41'0 0.0 19.5
2018-Feb-20 08:45N 30°34' W 025°41'1 2.1 19.5
2018-Feb-20 08:30N 30°34' W 025°40'1 0.4 19.5
2018-Feb-20 07:15N 30°34' W 025°40'1 2.1 19.5
2018-Feb-20 07:00N 30°34' W 025°40'1 2.1 19.5
2018-Feb-20 06:45N 30°34' W 025°40'0 0.0 19.5
2018-Feb-20 06:30N 30°34' W 025°40'1 2.1 19.5
2018-Feb-20 06:15N 30°34' W 025°40'1 0.5 19.5
2018-Feb-20 04:45N 30°35' W 025°41'0 0.0 19.5
2018-Feb-20 04:30N 30°35' W 025°41'0 0.0 19.5
2018-Feb-20 00:15N 30°35' W 025°41'0 0.0 19.5
2018-Feb-19 23:30N 30°35' W 025°41'0 0.0 19.5
2018-Feb-19 23:15N 30°35' W 025°41'0 0.0 19.5
2018-Feb-19 22:45N 30°35' W 025°41'0 0.0 19.5
2018-Feb-19 22:30N 30°35' W 025°41'0 0.0 19.5
2018-Feb-19 22:15N 30°35' W 025°41'0 0.0 19.5
2018-Feb-19 21:45N 30°35' W 025°41'0 0.0 19.5
2018-Feb-19 21:30N 30°35' W 025°41'0 0.0 19.5
2018-Feb-19 21:15N 30°35' W 025°41'1 4.1 19.5
2018-Feb-19 21:00N 30°35' W 025°40'1 2.1 19.6
2018-Feb-19 20:45N 30°35' W 025°40'0 0.0 19.6
2018-Feb-19 20:30N 30°35' W 025°40'0 0.0 19.5
2018-Feb-19 19:45N 30°35' W 025°40'1 0.8 19.6
2018-Feb-19 19:00N 30°35' W 025°40'0 0.0 19.6
2018-Feb-19 18:00N 30°35' W 025°40'0 0.0 19.6
2018-Feb-19 17:45N 30°35' W 025°40'0 0.0 19.6
2018-Feb-19 16:15N 30°35' W 025°40'1 0.2 19.6
2018-Feb-19 13:00N 30°36' W 025°40'0 0.0 19.6
2018-Feb-19 12:15N 30°36' W 025°40'1 3.2 19.6
2018-Feb-19 12:00N 30°35' W 025°40'1 1.2 19.6
2018-Feb-19 11:30N 30°36' W 025°40'1 1.6 19.6
2018-Feb-19 11:00N 30°35' W 025°40'0 0.0 19.6
2018-Feb-19 10:30N 30°35' W 025°40'0 0.0 19.6
2018-Feb-19 10:15N 30°35' W 025°40'1 0.8 19.6
2018-Feb-19 09:30N 30°36' W 025°40'0 0.0 19.5
2018-Feb-19 09:15N 30°36' W 025°40'1 0.3 19.5
2018-Feb-19 07:45N 30°36' W 025°39'1 2.1 19.5
2018-Feb-19 07:30N 30°36' W 025°40'1 2.1 19.6
2018-Feb-19 07:15N 30°36' W 025°39'0 0.0 19.5
2018-Feb-19 06:45N 30°36' W 025°39'0 0.0 19.6
2018-Feb-19 06:30N 30°36' W 025°39'0 0.0 19.6
2018-Feb-19 05:45N 30°36' W 025°39'0 0.0 19.6
2018-Feb-19 05:00N 30°36' W 025°39'2 6.3 19.6
2018-Feb-19 04:45N 30°37' W 025°40'0 0.0 19.6
2018-Feb-18 23:45N 30°37' W 025°40'0 0.0 19.6
2018-Feb-18 23:15N 30°37' W 025°40'0 0.0 19.6
2018-Feb-18 23:00N 30°37' W 025°40'0 0.0 19.6
2018-Feb-18 22:30N 30°37' W 025°40'0 0.0 19.6
2018-Feb-18 22:15N 30°37' W 025°40'0 0.0 19.6
2018-Feb-18 22:00N 30°37' W 025°40'0 0.0 19.7
2018-Feb-18 21:30N 30°37' W 025°40'1 2.4 19.7
2018-Feb-18 21:15N 30°37' W 025°40'0 0.0 19.7
2018-Feb-18 21:00N 30°37' W 025°40'1 3.2 19.7
2018-Feb-18 20:45N 30°37' W 025°40'1 1.2 19.7
2018-Feb-18 20:15N 30°37' W 025°40'1 0.8 19.7
2018-Feb-18 19:30N 30°37' W 025°40'0 0.0 19.7
2018-Feb-18 19:15N 30°37' W 025°40'0 0.0 19.7
2018-Feb-18 18:45N 30°37' W 025°40'1 3.2 19.7
2018-Feb-18 18:30N 30°37' W 025°39'1 2.4 19.8
2018-Feb-18 18:15N 30°37' W 025°39'0 0.0 19.8
2018-Feb-18 18:00N 30°37' W 025°39'1 0.5 19.8
2018-Feb-18 16:30N 30°38' W 025°40'1 3.2 19.8
2018-Feb-18 16:15N 30°37' W 025°39'1 0.2 19.8
2018-Feb-18 12:30N 30°38' W 025°39'1 0.8 19.7
2018-Feb-18 11:45N 30°38' W 025°39'1 1.2 19.7
2018-Feb-18 11:15N 30°38' W 025°39'0 0.0 19.7
2018-Feb-18 11:00N 30°38' W 025°39'1 3.2 19.7
2018-Feb-18 10:45N 30°38' W 025°40'0 0.0 19.7
2018-Feb-18 10:15N 30°38' W 025°40'1 2.1 19.6
2018-Feb-18 10:00N 30°38' W 025°39'1 2.4 19.6
2018-Feb-18 09:45N 30°38' W 025°39'0 0.0 19.6
2018-Feb-18 09:30N 30°38' W 025°39'1 0.6 19.6
2018-Feb-18 08:15N 30°38' W 025°38'0 0.0 19.7
2018-Feb-18 08:00N 30°38' W 025°38'0 0.0 19.7
2018-Feb-18 07:45N 30°38' W 025°38'1 0.6 19.7
2018-Feb-18 06:45N 30°39' W 025°38'1 2.4 19.7
2018-Feb-18 06:30N 30°38' W 025°38'0 0.0 19.7
2018-Feb-18 06:15N 30°38' W 025°38'1 0.6 19.7
2018-Feb-18 05:15N 30°39' W 025°38'2 6.3 19.7
2018-Feb-18 05:00N 30°40' W 025°40'0 0.0 19.7
2018-Feb-18 00:15N 30°40' W 025°40'0 0.0 19.8
2018-Feb-18 00:00N 30°40' W 025°40'1 1.0 19.8
2018-Feb-17 23:30N 30°40' W 025°40'1 2.1 19.8
2018-Feb-17 23:15N 30°40' W 025°40'1 0.7 19.8
2018-Feb-17 22:30N 30°40' W 025°40'0 0.0 19.8
2018-Feb-17 22:15N 30°40' W 025°40'0 0.0 19.8
2018-Feb-17 21:45N 30°40' W 025°40'0 0.0 1026.5 3.0 0.819.8
2018-Feb-17 21:30N 30°40' W 025°40'1 2.1 19.8
2018-Feb-17 21:15N 30°40' W 025°41'0 0.0 19.8
2018-Feb-17 21:00N 30°40' W 025°41'1 2.1 19.8
2018-Feb-17 20:45N 30°40' W 025°40'0 0.0 19.8
2018-Feb-17 20:00N 30°40' W 025°40'0 0.0 19.9
2018-Feb-17 19:45N 30°40' W 025°40'0 0.0 19.9
2018-Feb-17 19:30N 30°40' W 025°40'0 0.0 20.0
2018-Feb-17 19:15N 30°40' W 025°40'0 0.0 20.0
2018-Feb-17 19:00N 30°40' W 025°40'1 1.0 20.0
2018-Feb-17 18:30N 30°40' W 025°40'0 0.0 20.0
2018-Feb-17 18:15N 30°40' W 025°40'1 0.9 20.1
2018-Feb-17 16:45N 30°41' W 025°39'0 0.0 20.2
2018-Feb-17 16:30N 30°41' W 025°39'0 0.0 20.3
2018-Feb-17 12:45N 30°41' W 025°39'0 0.0 20.0
2018-Feb-17 12:15N 30°41' W 025°39'0 0.0 19.8
2018-Feb-17 12:00N 30°41' W 025°39'0 0.0 19.8
2018-Feb-17 11:30N 30°41' W 025°39'1 3.2 19.7
2018-Feb-17 11:15N 30°42' W 025°40'0 0.0 19.7
2018-Feb-17 11:00N 30°42' W 025°40'0 0.0 19.7
2018-Feb-17 10:30N 30°42' W 025°40'0 0.0 19.7
2018-Feb-17 10:15N 30°42' W 025°40'0 0.0 19.7
2018-Feb-17 10:00N 30°42' W 025°40'1 3.2 19.7
2018-Feb-17 09:45N 30°41' W 025°39'0 0.0 19.7
2018-Feb-17 08:45N 30°41' W 025°39'1 2.4 19.7
2018-Feb-17 08:30N 30°42' W 025°39'0 0.0 19.7
2018-Feb-17 08:15N 30°42' W 025°39'0 0.0 19.7
2018-Feb-17 08:00N 30°42' W 025°39'1 0.8 19.7
2018-Feb-17 07:00N 30°43' W 025°40'0 0.0 19.7
2018-Feb-17 06:45N 30°43' W 025°40'1 0.5 19.7
2018-Feb-17 05:15N 30°43' W 025°40'1 0.1 19.8
2018-Feb-16 23:45N 30°43' W 025°41'1 0.5 20.1
2018-Feb-16 22:45N 30°43' W 025°40'0 0.0 20.2
2018-Feb-16 22:15N 30°43' W 025°40'1 2.1 20.3
2018-Feb-16 22:00N 30°43' W 025°41'0 0.0 20.3
2018-Feb-16 21:30N 30°43' W 025°41'0 0.0 20.4
2018-Feb-16 21:15N 30°43' W 025°41'0 0.0 20.4
2018-Feb-16 21:00N 30°43' W 025°41'0 0.0 20.4
2018-Feb-16 20:15N 30°43' W 025°41'0 0.0 20.6
2018-Feb-16 19:45N 30°43' W 025°41'0 0.0 20.8
2018-Feb-16 19:30N 30°43' W 025°41'1 1.1 20.9
2018-Feb-16 18:45N 30°44' W 025°40'1 5.2 21.1
2018-Feb-16 18:30N 30°43' W 025°41'2 1.1 21.1
2018-Feb-16 17:00N 30°44' W 025°40'0 0.0 21.5
2018-Feb-16 16:45N 30°44' W 025°40'0 0.0 21.5
2018-Feb-16 15:15N 30°44' W 025°40'0 0.0 21.2
2018-Feb-16 13:15N 30°44' W 025°40'0 0.0 20.2
2018-Feb-16 12:30N 30°44' W 025°40'0 0.0 20.0
2018-Feb-16 12:15N 30°44' W 025°40'0 0.0 19.9
2018-Feb-16 11:30N 30°44' W 025°40'1 0.8 19.7
2018-Feb-16 10:45N 30°44' W 025°40'1 0.7 19.7
2018-Feb-16 10:00N 30°44' W 025°40'0 0.0 19.6
2018-Feb-16 09:45N 30°44' W 025°40'0 0.0 19.6
2018-Feb-16 09:00N 30°44' W 025°40'0 0.0 19.6
2018-Feb-16 08:15N 30°44' W 025°40'0 0.0 19.6
2018-Feb-16 07:30N 30°44' W 025°40'0 0.0 19.6
2018-Feb-16 07:15N 30°44' W 025°40'1 3.2 19.6
2018-Feb-16 07:00N 30°45' W 025°40'0 0.0 19.6
2018-Feb-16 05:45N 30°45' W 025°40'1 2.1 19.6
2018-Feb-16 05:30N 30°45' W 025°40'0 0.0 19.6
2018-Feb-16 05:15N 30°45' W 025°40'1 0.1 19.7
2018-Feb-16 00:00N 30°45' W 025°41'0 0.0 19.8
2018-Feb-15 23:15N 30°45' W 025°41'0 0.0 19.8
2018-Feb-15 23:00N 30°45' W 025°41'0 0.0 19.8
2018-Feb-15 22:30N 30°45' W 025°41'1 2.1 19.9
2018-Feb-15 22:15N 30°45' W 025°41'0 0.0 19.9
2018-Feb-15 21:30N 30°45' W 025°41'0 0.0 19.9
2018-Feb-15 20:45N 30°45' W 025°41'0 0.0 19.9
2018-Feb-15 20:30N 30°45' W 025°41'0 0.0 20.0
2018-Feb-15 20:15N 30°45' W 025°41'0 0.0 20.0
2018-Feb-15 20:00N 30°45' W 025°41'0 0.0 20.0
2018-Feb-15 19:45N 30°45' W 025°41'1 1.0 20.0
2018-Feb-15 19:15N 30°45' W 025°41'1 2.1 20.1
2018-Feb-15 19:00N 30°45' W 025°41'0 0.0 20.1
2018-Feb-15 18:45N 30°45' W 025°41'0 0.0 20.1
2018-Feb-15 18:30N 30°45' W 025°41'1 0.3 20.2
2018-Feb-15 17:00N 30°45' W 025°41'0 0.0 20.1
2018-Feb-15 15:15N 30°45' W 025°41'1 0.2 20.1
2018-Feb-15 12:45N 30°46' W 025°41'0 0.0 19.8
2018-Feb-15 12:00N 30°46' W 025°41'0 0.0 19.7
2018-Feb-15 11:45N 30°46' W 025°41'0 0.0 19.7
2018-Feb-15 11:15N 30°46' W 025°41'0 0.0 19.6
2018-Feb-15 11:00N 30°46' W 025°41'1 1.1 19.6
2018-Feb-15 10:15N 30°46' W 025°41'0 0.0 19.6
2018-Feb-15 10:00N 30°46' W 025°41'0 0.0 19.6
2018-Feb-15 09:30N 30°46' W 025°41'0 0.0 19.6
2018-Feb-15 09:15N 30°46' W 025°41'1 0.8 19.6
2018-Feb-15 08:30N 30°46' W 025°41'1 1.0 19.6
2018-Feb-15 08:00N 30°46' W 025°42'1 3.2 19.6
2018-Feb-15 07:45N 30°46' W 025°41'0 0.0 19.6
2018-Feb-15 07:30N 30°46' W 025°41'1 3.2 19.6
2018-Feb-15 07:15N 30°46' W 025°41'0 0.0 19.6
2018-Feb-15 06:15N 30°46' W 025°41'1 2.1 19.6
2018-Feb-15 06:00N 30°46' W 025°41'1 3.2 19.6
2018-Feb-15 05:45N 30°46' W 025°42'0 0.0 19.6
2018-Feb-15 05:30N 30°46' W 025°42'0 0.0 19.6
2018-Feb-15 04:00N 30°46' W 025°42'1 0.1 19.6
2018-Feb-14 23:30N 30°46' W 025°42'1 1.1 19.7
2018-Feb-14 22:45N 30°46' W 025°41'0 0.0 19.7
2018-Feb-14 22:00N 30°46' W 025°41'1 2.1 19.7
2018-Feb-14 21:45N 30°46' W 025°42'0 0.0 19.7
2018-Feb-14 21:30N 30°46' W 025°42'0 0.0 19.7
2018-Feb-14 21:00N 30°46' W 025°42'1 2.1 19.8
2018-Feb-14 20:45N 30°46' W 025°43'1 2.1 19.8
2018-Feb-14 20:30N 30°46' W 025°42'1 1.0 19.8
2018-Feb-14 20:00N 30°46' W 025°43'1 1.0 19.8
2018-Feb-14 19:30N 30°46' W 025°42'0 0.0 19.8
2018-Feb-14 19:15N 30°46' W 025°42'0 0.0 19.8
2018-Feb-14 19:00N 30°46' W 025°42'0 0.0 19.9
2018-Feb-14 17:15N 30°46' W 025°42'0 0.0 20.1
2018-Feb-14 17:00N 30°46' W 025°42'0 0.0 20.1
2018-Feb-14 15:30N 30°46' W 025°42'1 0.2 19.8
2018-Feb-14 13:00N 30°47' W 025°42'1 0.7 19.7
2018-Feb-14 12:15N 30°47' W 025°43'0 0.0 19.7
2018-Feb-14 12:00N 30°47' W 025°43'0 0.0 19.7
2018-Feb-14 11:30N 30°47' W 025°43'0 0.0 19.6
2018-Feb-14 11:15N 30°47' W 025°43'0 0.0 19.6
2018-Feb-14 10:30N 30°47' W 025°43'0 0.0 19.6
2018-Feb-14 10:15N 30°47' W 025°43'0 0.0 19.6
2018-Feb-14 09:45N 30°47' W 025°43'1 0.5 19.6
2018-Feb-14 08:45N 30°47' W 025°43'0 0.0 19.6
2018-Feb-14 08:30N 30°47' W 025°43'0 0.0 19.6
2018-Feb-14 08:15N 30°47' W 025°43'0 0.0 19.6
2018-Feb-14 07:30N 30°47' W 025°43'0 0.0 19.6
2018-Feb-14 06:45N 30°47' W 025°43'0 0.0 19.6
2018-Feb-14 06:30N 30°47' W 025°43'1 1.2 19.6
2018-Feb-14 06:00N 30°47' W 025°43'1 3.2 19.6
2018-Feb-14 05:45N 30°48' W 025°43'1 0.7 19.6
2018-Feb-14 04:15N 30°48' W 025°44'0 0.0 19.6
2018-Feb-14 04:00N 30°48' W 025°44'0 0.0 19.6
2018-Feb-14 00:00N 30°48' W 025°44'1 3.2 19.6
2018-Feb-13 23:45N 30°47' W 025°43'0 0.0 19.6
2018-Feb-13 23:15N 30°47' W 025°43'0 0.0 19.6
2018-Feb-13 23:00N 30°47' W 025°43'0 0.0 19.7
2018-Feb-13 22:15N 30°47' W 025°43'0 0.0 19.7
2018-Feb-13 22:00N 30°47' W 025°43'1 3.2 19.7
2018-Feb-13 21:45N 30°48' W 025°44'1 2.4 19.6
2018-Feb-13 21:30N 30°47' W 025°44'0 0.0 19.7
2018-Feb-13 21:15N 30°47' W 025°44'0 0.0 19.7
2018-Feb-13 21:00N 30°47' W 025°44'0 0.0 19.7
2018-Feb-13 20:15N 30°47' W 025°44'1 4.1 19.7
2018-Feb-13 20:00N 30°47' W 025°43'1 1.0 19.7
2018-Feb-13 19:30N 30°47' W 025°43'1 0.4 19.7
2018-Feb-13 18:15N 30°47' W 025°43'0 0.0 19.7
2018-Feb-13 17:30N 30°47' W 025°43'0 0.0 19.8
2018-Feb-13 17:15N 30°47' W 025°43'0 0.0 19.8
2018-Feb-13 15:45N 30°47' W 025°43'2 0.5 19.8
2018-Feb-13 12:30N 30°49' W 025°41'1 1.2 19.6
2018-Feb-13 12:00N 30°48' W 025°41'1 2.4 19.6
2018-Feb-13 11:45N 30°49' W 025°41'0 0.0 19.6
2018-Feb-13 11:00N 30°49' W 025°41'0 0.0 19.6
2018-Feb-13 10:45N 30°49' W 025°41'0 0.0 19.6
2018-Feb-13 10:30N 30°49' W 025°41'1 3.2 19.6
2018-Feb-13 10:15N 30°49' W 025°42'1 0.5 19.6
2018-Feb-13 09:00N 30°49' W 025°42'1 3.2 19.6
2018-Feb-13 08:45N 30°49' W 025°43'0 0.0 19.6
2018-Feb-13 08:30N 30°49' W 025°43'0 0.0 19.6
2018-Feb-13 07:15N 30°49' W 025°43'0 0.0 19.6
2018-Feb-13 06:15N 30°49' W 025°43'1 4.8 19.6
2018-Feb-13 06:00N 30°50' W 025°43'0 0.0 19.6
2018-Feb-13 05:45N 30°50' W 025°43'0 0.0 19.6
2018-Feb-13 05:30N 30°50' W 025°43'0 0.0 19.6
2018-Feb-13 04:30N 30°50' W 025°43'1 2.1 19.6
2018-Feb-13 04:15N 30°50' W 025°42'0 0.0 19.6
2018-Feb-13 00:15N 30°50' W 025°42'0 0.0 19.6
2018-Feb-13 00:00N 30°50' W 025°42'   19.6

Dump ship's entire track history